Time;durP1;ratioP1;P1;durP2;ratioP2;P2;SDS_P1;SDS_P2;PMS_P1;PMS_P2;Temp;Humidity;BMP_temperature;BMP_pressure;BME280_temperature;BME280_humidity;BME280_pressure;Samples;Min_cycle;Max_cycle;Signal;HPM_P1;HPM_P2
2023/12/18 00:02:16;;;;;;;11.20;3.85;;;9.00;99.90;;;;;;5035441;28;20106;-62
2023/12/18 00:04:41;;;;;;;14.30;5.13;;;9.10;99.90;;;;;;5019744;28;20080;-62
2023/12/18 00:07:07;;;;;;;13.00;3.88;;;9.00;99.90;;;;;;5054383;28;20453;-62
2023/12/18 00:09:33;;;;;;;16.88;4.97;;;9.00;99.90;;;;;;5051874;28;20098;-62
2023/12/18 00:11:58;;;;;;;21.38;4.80;;;9.00;99.90;;;;;;5039759;28;20036;-62
2023/12/18 00:14:24;;;;;;;14.43;4.05;;;9.00;99.90;;;;;;5021872;28;20048;-62
2023/12/18 00:16:50;;;;;;;14.27;4.20;;;9.00;99.90;;;;;;5032607;28;20120;-62
2023/12/18 00:19:15;;;;;;;16.73;5.43;;;9.10;99.90;;;;;;5032576;28;20041;-62
2023/12/18 00:21:41;;;;;;;10.43;3.72;;;9.10;99.90;;;;;;5031272;28;20092;-62
2023/12/18 00:24:07;;;;;;;14.43;4.38;;;9.10;99.90;;;;;;5016430;28;20156;-62
2023/12/18 00:26:32;;;;;;;13.95;4.20;;;9.10;99.90;;;;;;5032549;28;20041;-62
2023/12/18 00:28:58;;;;;;;13.57;4.45;;;9.10;99.90;;;;;;5032044;28;20037;-62
2023/12/18 00:31:24;;;;;;;19.25;4.40;;;9.10;99.90;;;;;;5035353;28;20056;-62
2023/12/18 00:33:49;;;;;;;12.52;4.15;;;9.20;99.90;;;;;;5036022;28;20127;-62
2023/12/18 00:36:15;;;;;;;12.52;4.18;;;9.20;99.90;;;;;;5034890;28;20041;-62
2023/12/18 00:38:40;;;;;;;15.75;3.85;;;9.20;99.90;;;;;;5035093;28;20037;-62
2023/12/18 00:41:06;;;;;;;17.58;4.22;;;9.10;99.90;;;;;;5027682;28;20037;-62
2023/12/18 00:43:32;;;;;;;13.35;4.43;;;9.10;99.90;;;;;;5014500;28;20494;-62
2023/12/18 00:45:57;;;;;;;12.48;4.35;;;9.10;99.90;;;;;;5033687;28;20041;-62
2023/12/18 00:48:23;;;;;;;10.57;3.80;;;9.20;99.90;;;;;;5015675;28;20092;-63
2023/12/18 00:50:49;;;;;;;17.38;3.95;;;9.20;99.90;;;;;;5014937;28;20080;-62
2023/12/18 00:53:16;;;;;;;15.25;4.60;;;9.20;99.90;;;;;;5022095;28;20123;-62
2023/12/18 00:55:44;;;;;;;10.32;4.28;;;9.20;99.90;;;;;;5035043;28;20080;-62
2023/12/18 00:58:10;;;;;;;8.07;3.13;;;9.20;99.90;;;;;;5051401;28;20469;-62
2023/12/18 01:00:36;;;;;;;16.17;4.55;;;9.20;99.90;;;;;;5035187;28;20068;-62
2023/12/18 01:03:01;;;;;;;10.60;3.22;;;9.20;99.90;;;;;;5052253;28;20032;-62
2023/12/18 01:05:27;;;;;;;9.60;4.30;;;9.20;99.90;;;;;;5034483;28;20060;-62
2023/12/18 01:07:53;;;;;;;10.60;3.80;;;9.20;99.90;;;;;;5048249;28;20044;-62
2023/12/18 01:10:18;;;;;;;12.48;3.25;;;9.20;99.90;;;;;;5023524;28;20060;-62
2023/12/18 01:12:45;;;;;;;11.35;4.40;;;9.20;99.90;;;;;;5050809;28;20106;-61
2023/12/18 01:15:10;;;;;;;12.63;3.67;;;9.20;99.90;;;;;;5034965;28;20439;-62
2023/12/18 01:17:36;;;;;;;11.82;3.92;;;9.20;99.90;;;;;;5034220;28;20037;-62
2023/12/18 01:20:05;;;;;;;11.02;4.05;;;9.20;99.90;;;;;;5052285;28;20072;-62
2023/12/18 01:22:31;;;;;;;11.95;3.45;;;9.20;99.90;;;;;;5034605;28;20378;-62
2023/12/18 01:24:57;;;;;;;8.05;3.70;;;9.20;99.90;;;;;;5034505;28;20056;-61
2023/12/18 01:27:22;;;;;;;9.32;3.72;;;9.20;99.90;;;;;;5032500;28;20486;-62
2023/12/18 01:29:48;;;;;;;9.85;3.85;;;9.20;99.90;;;;;;5034886;28;20041;-61
2023/12/18 01:32:14;;;;;;;11.52;3.38;;;9.20;99.90;;;;;;5032854;28;20445;-61
2023/12/18 01:34:39;;;;;;;14.52;3.30;;;9.20;99.90;;;;;;5034161;28;20065;-61
2023/12/18 01:37:05;;;;;;;8.35;4.03;;;9.20;99.90;;;;;;5051306;28;20036;-62
2023/12/18 01:39:32;;;;;;;19.35;3.85;;;9.20;99.90;;;;;;5033390;28;20040;-62
2023/12/18 01:41:59;;;;;;;16.63;3.78;;;9.10;99.90;;;;;;5052107;28;20037;-62
2023/12/18 01:44:25;;;;;;;10.82;3.80;;;9.20;99.90;;;;;;5034445;28;20498;-62
2023/12/18 01:46:51;;;;;;;12.50;4.03;;;9.10;99.90;;;;;;5033833;28;20037;-61
2023/12/18 01:49:16;;;;;;;17.48;4.03;;;9.10;99.90;;;;;;5034258;28;20048;-62
2023/12/18 01:51:42;;;;;;;13.40;3.60;;;9.20;99.90;;;;;;5050710;28;20041;-62
2023/12/18 01:54:09;;;;;;;8.77;3.25;;;9.20;99.90;;;;;;5032326;28;20120;-62
2023/12/18 01:56:35;;;;;;;13.85;3.75;;;9.20;99.90;;;;;;5014377;28;20060;-62
2023/12/18 01:59:02;;;;;;;14.18;3.85;;;9.20;99.90;;;;;;4998295;28;20037;-62
2023/12/18 02:01:29;;;;;;;14.02;3.78;;;9.20;99.90;;;;;;5030379;28;20387;-62
2023/12/18 02:03:55;;;;;;;11.60;3.80;;;9.10;99.90;;;;;;5015222;28;20429;-62
2023/12/18 02:06:23;;;;;;;13.80;3.53;;;9.20;99.90;;;;;;5014530;28;20045;-62
2023/12/18 02:08:49;;;;;;;10.32;3.85;;;9.20;99.90;;;;;;5013877;28;20044;-62
2023/12/18 02:11:14;;;;;;;11.68;4.40;;;9.10;99.90;;;;;;5051715;28;20037;-62
2023/12/18 02:13:41;;;;;;;11.73;4.35;;;9.10;99.90;;;;;;5051947;28;20460;-62
2023/12/18 02:16:06;;;;;;;12.90;3.47;;;9.10;99.90;;;;;;5033282;28;20052;-62
2023/12/18 02:18:32;;;;;;;13.57;3.65;;;9.10;99.90;;;;;;5032760;28;20040;-62
2023/12/18 02:20:58;;;;;;;10.75;3.47;;;9.10;99.90;;;;;;5032742;28;20048;-62
2023/12/18 02:23:24;;;;;;;11.10;3.70;;;9.10;99.90;;;;;;5022605;28;20038;-62
2023/12/18 02:25:50;;;;;;;14.32;4.72;;;9.10;99.90;;;;;;5014245;28;20083;-62
2023/12/18 02:28:16;;;;;;;15.80;3.90;;;9.10;99.90;;;;;;5029728;28;20401;-62
2023/12/18 02:30:42;;;;;;;15.98;4.00;;;9.10;99.90;;;;;;5032343;28;20466;-62
2023/12/18 02:33:08;;;;;;;14.07;3.60;;;9.00;99.90;;;;;;5014094;28;20111;-62
2023/12/18 02:35:33;;;;;;;11.80;4.03;;;9.00;99.90;;;;;;5013184;28;20404;-62
2023/12/18 02:37:59;;;;;;;10.60;3.65;;;9.00;99.90;;;;;;5014403;28;20399;-62
2023/12/18 02:40:26;;;;;;;12.27;3.75;;;9.00;99.90;;;;;;4997852;28;20417;-62
2023/12/18 02:42:52;;;;;;;14.32;4.45;;;9.00;99.90;;;;;;5013364;28;20041;-62
2023/12/18 02:45:17;;;;;;;9.65;3.63;;;9.00;99.90;;;;;;5018057;28;20449;-62
2023/12/18 02:47:43;;;;;;;10.68;3.33;;;9.00;99.90;;;;;;5018110;28;20132;-62
2023/12/18 02:50:09;;;;;;;15.52;4.20;;;9.00;99.90;;;;;;5034833;28;20593;-62
2023/12/18 02:52:35;;;;;;;15.80;4.10;;;9.00;99.90;;;;;;5020195;28;20045;-62
2023/12/18 02:55:00;;;;;;;13.00;4.22;;;9.00;99.90;;;;;;5018785;28;20108;-62
2023/12/18 02:57:27;;;;;;;10.77;3.72;;;9.00;99.90;;;;;;4997756;28;20042;-62
2023/12/18 02:59:52;;;;;;;14.15;4.20;;;9.00;99.90;;;;;;4982205;28;20046;-62
2023/12/18 03:02:18;;;;;;;10.20;3.92;;;9.00;99.90;;;;;;4998108;28;20045;-62
2023/12/18 03:04:44;;;;;;;12.05;4.00;;;9.00;99.90;;;;;;4997406;28;20085;-62
2023/12/18 03:07:10;;;;;;;13.07;3.72;;;9.00;99.90;;;;;;4998064;28;20042;-62
2023/12/18 03:09:36;;;;;;;12.38;4.82;;;9.00;99.90;;;;;;5014302;28;20125;-62
2023/12/18 03:12:02;;;;;;;22.42;4.60;;;9.00;99.90;;;;;;4997225;28;20038;-61
2023/12/18 03:14:27;;;;;;;13.73;3.63;;;9.00;99.90;;;;;;4997807;28;20056;-62
2023/12/18 03:16:53;;;;;;;18.02;5.05;;;9.00;99.90;;;;;;4997842;28;20129;-61
2023/12/18 03:19:19;;;;;;;16.67;4.93;;;8.90;99.90;;;;;;5014738;28;20049;-62
2023/12/18 03:21:45;;;;;;;18.80;5.32;;;8.90;99.90;;;;;;4998054;28;20431;-62
2023/12/18 03:24:11;;;;;;;13.07;3.75;;;9.00;99.90;;;;;;5013454;28;20064;-62
2023/12/18 03:26:37;;;;;;;11.38;3.65;;;8.90;99.90;;;;;;4997600;28;20125;-62
2023/12/18 03:29:03;;;;;;;11.07;3.42;;;9.00;99.90;;;;;;5017547;28;20247;-62
2023/12/18 03:31:29;;;;;;;10.63;4.20;;;8.90;99.90;;;;;;5016427;28;20045;-62
2023/12/18 03:33:54;;;;;;;16.95;4.28;;;8.90;99.90;;;;;;5017290;28;20044;-61
2023/12/18 03:36:20;;;;;;;12.55;4.00;;;8.90;99.90;;;;;;5017070;28;20402;-62
2023/12/18 03:38:46;;;;;;;7.82;3.25;;;9.00;99.90;;;;;;5016413;28;20049;-62
2023/12/18 03:41:12;;;;;;;12.20;3.75;;;8.90;99.90;;;;;;5016893;28;20052;-62
2023/12/18 03:43:38;;;;;;;17.95;5.43;;;8.90;99.90;;;;;;5016920;28;20033;-62
2023/12/18 03:46:04;;;;;;;12.93;4.00;;;8.90;99.90;;;;;;5015703;28;20033;-61
2023/12/18 03:48:30;;;;;;;10.13;3.58;;;8.90;99.90;;;;;;4980675;28;20049;-62
2023/12/18 03:50:55;;;;;;;15.88;4.10;;;8.90;99.90;;;;;;4997526;28;20045;-62
2023/12/18 03:53:21;;;;;;;13.50;3.63;;;8.90;99.90;;;;;;4998329;28;20402;-61
2023/12/18 03:55:47;;;;;;;14.82;4.18;;;8.90;99.90;;;;;;5015973;28;20049;-62
2023/12/18 03:58:13;;;;;;;13.65;4.68;;;8.90;99.90;;;;;;5016680;28;20528;-62
2023/12/18 04:00:39;;;;;;;9.98;4.60;;;9.00;99.90;;;;;;5033295;28;20116;-62
2023/12/18 04:03:05;;;;;;;12.73;4.10;;;9.00;99.90;;;;;;5016739;28;20084;-62
2023/12/18 04:05:31;;;;;;;14.75;4.20;;;8.90;99.90;;;;;;5032760;28;20045;-62
2023/12/18 04:07:56;;;;;;;8.93;3.10;;;8.90;99.90;;;;;;5000934;28;20053;-61
2023/12/18 04:10:22;;;;;;;18.05;4.47;;;8.90;99.90;;;;;;5036428;28;20070;-62
2023/12/18 04:12:48;;;;;;;11.18;3.83;;;9.00;99.90;;;;;;5054208;28;20095;-62
2023/12/18 04:15:14;;;;;;;12.40;4.78;;;9.00;99.90;;;;;;5035640;28;20044;-62
2023/12/18 04:17:39;;;;;;;11.95;3.65;;;9.00;99.90;;;;;;5036101;28;20386;-62
2023/12/18 04:20:06;;;;;;;10.30;3.65;;;9.00;99.90;;;;;;5036333;28;20612;-62
2023/12/18 04:22:32;;;;;;;13.15;3.83;;;9.00;99.90;;;;;;5034754;28;20112;-62
2023/12/18 04:24:58;;;;;;;9.23;3.58;;;9.00;99.90;;;;;;5053107;28;20049;-62
2023/12/18 04:27:23;;;;;;;13.32;5.25;;;9.00;99.90;;;;;;5019281;28;20047;-62
2023/12/18 04:29:49;;;;;;;15.20;3.72;;;9.00;99.90;;;;;;5034985;28;20155;-62
2023/12/18 04:32:15;;;;;;;13.27;4.35;;;9.00;99.90;;;;;;5051788;28;20049;-62
2023/12/18 04:34:41;;;;;;;9.00;3.40;;;9.00;99.90;;;;;;5034913;28;20051;-62
2023/12/18 04:37:07;;;;;;;11.38;3.47;;;9.00;99.90;;;;;;5024129;28;20095;-62
2023/12/18 04:39:34;;;;;;;14.82;3.85;;;9.00;99.90;;;;;;5032261;28;20049;-62
2023/12/18 04:41:59;;;;;;;17.38;4.00;;;9.10;99.90;;;;;;5015286;28;20042;-62
2023/12/18 04:44:25;;;;;;;11.65;4.22;;;9.00;99.90;;;;;;5033471;28;20037;-62
2023/12/18 04:46:51;;;;;;;15.20;4.40;;;9.00;99.90;;;;;;5032097;28;20463;-61
2023/12/18 04:49:18;;;;;;;11.50;3.65;;;9.00;99.90;;;;;;5014924;28;20120;-62
2023/12/18 04:51:44;;;;;;;11.93;3.22;;;9.00;99.90;;;;;;5015804;28;20041;-62
2023/12/18 04:54:10;;;;;;;11.48;3.03;;;9.00;99.90;;;;;;5032011;28;20045;-61
2023/12/18 04:56:36;;;;;;;16.08;3.72;;;9.00;99.90;;;;;;5014684;28;20050;-61
2023/12/18 04:59:01;;;;;;;9.70;3.15;;;9.00;99.90;;;;;;5015809;28;20456;-61
2023/12/18 05:01:28;;;;;;;15.52;4.47;;;9.00;99.90;;;;;;5015290;28;20037;-62
2023/12/18 05:03:54;;;;;;;15.40;3.70;;;9.00;99.90;;;;;;5014580;28;20114;-62
2023/12/18 05:06:28;;;;;;;17.00;4.38;;;9.00;99.90;;;;;;5015340;28;20120;-62
2023/12/18 05:08:54;;;;;;;14.32;4.10;;;9.00;99.90;;;;;;5015772;28;20106;-61
2023/12/18 05:11:22;;;;;;;15.30;5.00;;;9.00;99.90;;;;;;5014508;28;20053;-62
2023/12/18 05:13:48;;;;;;;16.15;4.68;;;9.00;99.90;;;;;;5031961;28;20045;-62
2023/12/18 05:16:15;;;;;;;11.05;3.90;;;9.00;99.90;;;;;;5015112;28;20132;-62
2023/12/18 05:18:41;;;;;;;11.45;3.95;;;9.00;99.90;;;;;;4998023;28;20487;-62
2023/12/18 05:21:07;;;;;;;16.58;4.07;;;9.10;99.90;;;;;;5015997;28;20102;-62
2023/12/18 05:23:33;;;;;;;10.75;3.45;;;9.10;99.90;;;;;;4998641;28;20033;-62
2023/12/18 05:25:59;;;;;;;11.75;4.13;;;9.10;99.90;;;;;;5014632;28;20043;-62
2023/12/18 05:28:25;;;;;;;16.92;4.53;;;9.10;99.90;;;;;;5032670;28;20037;-61
2023/12/18 05:30:51;;;;;;;17.38;4.28;;;9.10;99.90;;;;;;5030872;28;20398;-61
2023/12/18 05:33:17;;;;;;;12.90;3.95;;;9.10;99.90;;;;;;5027661;28;20052;-62
2023/12/18 05:35:43;;;;;;;10.80;3.85;;;9.10;99.90;;;;;;5052294;28;20047;-62
2023/12/18 05:38:09;;;;;;;9.63;3.38;;;9.10;99.90;;;;;;5033727;28;20040;-62
2023/12/18 05:40:35;;;;;;;14.90;4.13;;;9.10;99.90;;;;;;5034620;28;20044;-62
2023/12/18 05:43:01;;;;;;;7.72;3.58;;;9.00;99.90;;;;;;5018199;28;20040;-62
2023/12/18 05:45:27;;;;;;;11.20;4.70;;;9.10;99.90;;;;;;5033664;28;20041;-61
2023/12/18 05:47:53;;;;;;;12.70;5.15;;;9.00;99.90;;;;;;5034270;28;20048;-61
2023/12/18 05:50:18;;;;;;;11.90;3.97;;;9.10;99.90;;;;;;5034375;28;20072;-62
2023/12/18 05:52:44;;;;;;;13.65;5.93;;;9.00;99.90;;;;;;5033856;28;20051;-62
2023/12/18 05:55:10;;;;;;;14.13;5.40;;;9.00;99.90;;;;;;5052003;28;20579;-62
2023/12/18 05:57:36;;;;;;;13.98;7.18;;;8.90;99.90;;;;;;5033694;28;20551;-62
2023/12/18 06:00:04;;;;;;;21.38;9.13;;;8.80;99.90;;;;;;5030703;28;20041;-61
2023/12/18 06:02:29;;;;;;;24.02;10.43;;;8.70;99.90;;;;;;5030653;28;20434;-62
2023/12/18 06:04:55;;;;;;;17.38;9.32;;;8.70;99.90;;;;;;5014712;28;20098;-61
2023/12/18 06:07:21;;;;;;;20.83;9.40;;;8.60;99.90;;;;;;4997294;28;20041;-61
2023/12/18 06:09:46;;;;;;;16.30;9.07;;;8.50;99.90;;;;;;5031993;28;20131;-62
2023/12/18 06:12:12;;;;;;;15.90;8.68;;;8.50;99.90;;;;;;4999006;28;20041;-62
2023/12/18 06:14:38;;;;;;;21.13;8.65;;;8.40;99.90;;;;;;5013278;28;20077;-62
2023/12/18 06:17:04;;;;;;;17.52;8.68;;;8.40;99.90;;;;;;5014781;28;20052;-61
2023/12/18 06:19:29;;;;;;;19.98;9.55;;;8.30;99.90;;;;;;5013950;28;20128;-61
2023/12/18 06:21:55;;;;;;;20.63;9.55;;;8.30;99.90;;;;;;5013550;28;20517;-62
2023/12/18 06:24:21;;;;;;;19.13;9.30;;;8.30;99.90;;;;;;5030340;28;20068;-62
2023/12/18 06:26:46;;;;;;;15.88;8.38;;;8.20;99.90;;;;;;5014184;28;20045;-62
2023/12/18 06:29:12;;;;;;;18.50;11.07;;;8.20;99.90;;;;;;5029881;28;20049;-62
2023/12/18 06:31:37;;;;;;;20.92;9.25;;;8.20;99.90;;;;;;5030403;28;20044;-61
2023/12/18 06:34:03;;;;;;;18.65;10.57;;;8.20;99.90;;;;;;5030703;28;20052;-61
2023/12/18 06:36:29;;;;;;;27.10;10.15;;;8.10;99.90;;;;;;5031627;28;20033;-61
2023/12/18 06:38:55;;;;;;;17.33;9.70;;;8.10;99.90;;;;;;5038878;28;20111;-61
2023/12/18 06:41:21;;;;;;;18.02;9.57;;;8.10;99.90;;;;;;5032870;28;20387;-61
2023/12/18 06:43:47;;;;;;;27.40;9.82;;;8.10;99.90;;;;;;5011738;28;20037;-61
2023/12/18 06:46:13;;;;;;;23.73;10.70;;;8.10;99.90;;;;;;5014213;28;20045;-62
2023/12/18 06:48:42;;;;;;;20.63;10.23;;;8.10;99.90;;;;;;5013298;28;20124;-62
2023/12/18 06:51:11;;;;;;;19.50;9.75;;;8.10;99.90;;;;;;5014453;28;20041;-62
2023/12/18 06:53:36;;;;;;;18.60;10.30;;;8.10;99.90;;;;;;5014916;28;20041;-62
2023/12/18 06:56:02;;;;;;;22.13;10.88;;;8.10;99.90;;;;;;5021056;28;20650;-61
2023/12/18 06:58:28;;;;;;;24.55;10.43;;;8.10;99.90;;;;;;5040247;28;20091;-61
2023/12/18 07:00:54;;;;;;;23.63;10.68;;;8.10;99.90;;;;;;5033589;28;20033;-62
2023/12/18 07:03:19;;;;;;;22.20;10.85;;;8.10;99.90;;;;;;5012929;28;20041;-62
2023/12/18 07:05:46;;;;;;;18.45;10.55;;;8.10;99.90;;;;;;5013870;28;20045;-61
2023/12/18 07:08:12;;;;;;;19.52;10.45;;;8.10;99.90;;;;;;5016860;28;20053;-61
2023/12/18 07:10:38;;;;;;;22.27;10.75;;;8.10;99.90;;;;;;5025699;28;20045;-61
2023/12/18 07:13:04;;;;;;;19.38;11.27;;;8.10;99.90;;;;;;5037605;28;20048;-61
2023/12/18 07:15:29;;;;;;;19.33;11.23;;;8.10;99.90;;;;;;5024649;28;20041;-61
2023/12/18 07:17:58;;;;;;;22.27;11.15;;;8.10;99.90;;;;;;5023453;28;20041;-61
2023/12/18 07:20:24;;;;;;;17.55;10.82;;;8.10;99.90;;;;;;5003090;28;20048;-62
2023/12/18 07:22:50;;;;;;;18.55;11.07;;;8.10;99.90;;;;;;5026229;28;20053;-61
2023/12/18 07:25:15;;;;;;;24.90;12.35;;;8.10;99.90;;;;;;5032435;28;20040;-62
2023/12/18 07:27:41;;;;;;;22.00;12.80;;;8.10;99.90;;;;;;5031434;28;20098;-61
2023/12/18 07:30:07;;;;;;;30.95;13.63;;;8.00;99.90;;;;;;5027507;28;20127;-61
2023/12/18 07:32:33;;;;;;;25.45;12.77;;;8.00;99.90;;;;;;5022866;28;20098;-62
2023/12/18 07:35:00;;;;;;;21.13;12.20;;;8.00;99.90;;;;;;5031293;28;20045;-61
2023/12/18 07:37:27;;;;;;;22.17;12.05;;;7.90;99.90;;;;;;5009062;28;20430;-61
2023/12/18 07:39:53;;;;;;;22.33;12.70;;;7.90;99.90;;;;;;5020955;28;20095;-62
2023/12/18 07:42:19;;;;;;;24.38;11.43;;;7.90;99.90;;;;;;5052307;28;20542;-61
2023/12/18 07:44:44;;;;;;;25.42;12.77;;;7.90;99.90;;;;;;5016899;28;20052;-61
2023/12/18 07:47:10;;;;;;;25.40;13.55;;;7.90;99.90;;;;;;5016326;28;20049;-61
2023/12/18 07:49:35;;;;;;;24.70;13.35;;;7.90;99.90;;;;;;5034020;28;20390;-61
2023/12/18 07:52:02;;;;;;;24.92;11.68;;;7.80;99.90;;;;;;5028299;28;20099;-61
2023/12/18 07:54:27;;;;;;;21.70;11.95;;;7.90;99.90;;;;;;5010752;28;20888;-61
2023/12/18 07:56:53;;;;;;;24.90;12.50;;;7.90;99.90;;;;;;5034832;28;20072;-61
2023/12/18 07:59:20;;;;;;;24.05;13.63;;;7.90;99.90;;;;;;5023790;28;20523;-61
2023/12/18 08:01:46;;;;;;;26.05;13.48;;;7.90;99.90;;;;;;5033603;28;20052;-62
2023/12/18 08:04:11;;;;;;;22.02;12.40;;;7.90;99.90;;;;;;5020911;28;20577;-61
2023/12/18 08:06:37;;;;;;;20.75;11.77;;;7.90;99.90;;;;;;5015290;28;20128;-61
2023/12/18 08:09:03;;;;;;;21.08;12.60;;;7.90;99.90;;;;;;5008509;28;20148;-61
2023/12/18 08:11:28;;;;;;;22.35;13.15;;;7.90;99.90;;;;;;5031334;28;20383;-61
2023/12/18 08:13:54;;;;;;;26.73;13.65;;;7.90;99.90;;;;;;5025737;28;20479;-61
2023/12/18 08:16:20;;;;;;;24.02;13.25;;;8.00;99.90;;;;;;5030862;28;20033;-61
2023/12/18 08:18:47;;;;;;;25.63;12.82;;;8.00;99.90;;;;;;5034445;28;20406;-61
2023/12/18 08:21:14;;;;;;;23.98;12.40;;;8.00;99.90;;;;;;5032722;28;20037;-61
2023/12/18 08:23:40;;;;;;;23.15;10.90;;;8.00;99.90;;;;;;5049695;28;20044;-61
2023/12/18 08:26:06;;;;;;;22.40;12.65;;;8.00;99.90;;;;;;5033376;28;20044;-61
2023/12/18 08:28:32;;;;;;;21.45;11.00;;;8.00;99.90;;;;;;5027370;28;20053;-61
2023/12/18 08:30:57;;;;;;;24.95;12.10;;;8.10;99.90;;;;;;5013451;28;20107;-61
2023/12/18 08:33:23;;;;;;;24.58;12.50;;;8.10;99.90;;;;;;5013501;28;20473;-61
2023/12/18 08:35:49;;;;;;;18.10;10.30;;;8.10;99.90;;;;;;5029257;28;20098;-61
2023/12/18 08:38:15;;;;;;;22.40;10.40;;;8.10;99.90;;;;;;5032890;28;20091;-61
2023/12/18 08:40:41;;;;;;;26.73;12.10;;;8.10;99.90;;;;;;5031772;28;20437;-61
2023/12/18 08:43:06;;;;;;;18.20;10.00;;;8.20;99.90;;;;;;5003375;28;20466;-61
2023/12/18 08:45:32;;;;;;;20.08;10.52;;;8.20;99.90;;;;;;5029817;28;20049;-61
2023/12/18 08:47:59;;;;;;;24.80;10.82;;;8.20;99.90;;;;;;5035429;28;20053;-61
2023/12/18 08:50:26;;;;;;;22.40;11.25;;;8.20;99.90;;;;;;5034654;28;20123;-61
2023/12/18 08:52:52;;;;;;;29.95;11.50;;;8.20;99.90;;;;;;5035488;28;20067;-61
2023/12/18 08:55:19;;;;;;;22.90;10.38;;;8.30;99.90;;;;;;5051084;28;20113;-61
2023/12/18 08:57:45;;;;;;;20.25;9.32;;;8.30;99.90;;;;;;5035187;28;20072;-62
2023/12/18 09:00:12;;;;;;;21.95;10.68;;;8.30;99.90;;;;;;5033241;28;20471;-62
2023/12/18 09:02:38;;;;;;;22.65;11.50;;;8.30;99.90;;;;;;5034526;28;20049;-62
2023/12/18 09:05:04;;;;;;;21.13;10.20;;;8.30;99.90;;;;;;5015594;28;20052;-62
2023/12/18 09:07:29;;;;;;;20.88;11.48;;;8.30;99.90;;;;;;5014439;28;20426;-62
2023/12/18 09:09:55;;;;;;;22.20;11.38;;;8.30;99.90;;;;;;5032652;28;20052;-62
2023/12/18 09:12:21;;;;;;;21.10;10.55;;;8.30;99.90;;;;;;5015165;28;20037;-61
2023/12/18 09:14:46;;;;;;;17.20;10.68;;;8.40;99.90;;;;;;5014942;28;20040;-62
2023/12/18 09:17:12;;;;;;;18.20;10.88;;;8.40;99.90;;;;;;5013213;28;20104;-62
2023/12/18 09:19:38;;;;;;;24.75;10.35;;;8.40;99.90;;;;;;5015122;28;20403;-62
2023/12/18 09:22:03;;;;;;;19.92;11.32;;;8.40;99.90;;;;;;5015410;28;20038;-62
2023/12/18 09:24:29;;;;;;;27.65;12.30;;;8.40;99.90;;;;;;5014681;28;20103;-62
2023/12/18 09:26:55;;;;;;;27.85;11.70;;;8.40;99.90;;;;;;5015463;28;20046;-62
2023/12/18 09:29:22;;;;;;;21.70;11.70;;;8.40;99.90;;;;;;5014869;28;20045;-62
2023/12/18 09:31:48;;;;;;;27.35;12.85;;;8.40;99.90;;;;;;5014145;28;20050;-62
2023/12/18 09:34:14;;;;;;;24.08;11.07;;;8.40;99.90;;;;;;5014847;28;20087;-62
2023/12/18 09:36:40;;;;;;;23.98;11.98;;;8.40;99.90;;;;;;5014662;28;20383;-62
2023/12/18 09:39:05;;;;;;;20.73;11.65;;;8.40;99.90;;;;;;4998018;28;20045;-62
2023/12/18 09:41:31;;;;;;;29.55;11.40;;;8.40;99.90;;;;;;5014634;28;20450;-62
2023/12/18 09:43:57;;;;;;;23.40;11.90;;;8.40;99.90;;;;;;5032890;28;20100;-62
2023/12/18 09:46:24;;;;;;;16.48;11.07;;;8.40;99.90;;;;;;5014291;28;20438;-62
2023/12/18 09:48:51;;;;;;;21.92;11.90;;;8.40;99.90;;;;;;5014565;28;20490;-62
2023/12/18 09:51:23;;;;;;;25.30;12.07;;;8.50;99.90;;;;;;5013943;28;20053;-62
2023/12/18 09:53:50;;;;;;;21.65;11.13;;;8.50;99.90;;;;;;5013940;28;20503;-62
2023/12/18 09:56:23;;;;;;;20.90;11.27;;;8.50;99.90;;;;;;5014613;28;20106;-61
2023/12/18 09:58:49;;;;;;;19.60;10.85;;;8.60;99.90;;;;;;5014175;28;20037;-62
2023/12/18 10:01:15;;;;;;;21.77;10.75;;;8.60;99.90;;;;;;5014534;28;20487;-62
2023/12/18 10:03:41;;;;;;;25.27;12.02;;;8.60;99.90;;;;;;5014780;28;20038;-61
2023/12/18 10:06:08;;;;;;;18.33;11.05;;;8.70;99.90;;;;;;5013632;28;20060;-62
2023/12/18 10:08:34;;;;;;;20.35;10.55;;;8.70;99.90;;;;;;4998033;28;20099;-62
2023/12/18 10:11:01;;;;;;;19.70;10.57;;;8.70;99.90;;;;;;5014556;28;20057;-62
2023/12/18 10:13:27;;;;;;;18.67;11.00;;;8.70;99.90;;;;;;5013686;28;20122;-62
2023/12/18 10:15:53;;;;;;;20.92;10.70;;;8.70;99.90;;;;;;5014358;28;20077;-61
2023/12/18 10:18:22;;;;;;;25.05;10.77;;;8.70;99.90;;;;;;5014522;28;20049;-62
2023/12/18 10:20:48;;;;;;;20.25;11.82;;;8.70;99.90;;;;;;5013492;28;20038;-62
2023/12/18 10:23:14;;;;;;;19.00;10.60;;;8.70;99.90;;;;;;5014199;28;20029;-62
2023/12/18 10:25:40;;;;;;;20.70;11.23;;;8.70;99.90;;;;;;5014591;28;20438;-62
2023/12/18 10:28:07;;;;;;;19.33;11.90;;;8.70;99.90;;;;;;5031334;28;20512;-62
2023/12/18 10:30:34;;;;;;;23.90;10.50;;;8.70;99.90;;;;;;5014305;28;20080;-62
2023/12/18 10:33:05;;;;;;;23.55;12.02;;;8.70;99.90;;;;;;5014414;28;20120;-62
2023/12/18 10:35:31;;;;;;;29.15;12.18;;;8.70;99.90;;;;;;5012816;28;20042;-62
2023/12/18 10:38:00;;;;;;;20.95;11.05;;;8.70;99.90;;;;;;5014249;28;20121;-62
2023/12/18 10:40:27;;;;;;;22.55;10.70;;;8.70;99.90;;;;;;4997037;28;20038;-62
2023/12/18 10:43:12;;;;;;;19.60;11.85;;;8.70;99.90;;;;;;4997947;28;20059;-62
2023/12/18 10:45:38;;;;;;;;;;;8.70;99.90;;;;;;5014828;28;20042;-62
2023/12/18 10:48:05;;;;;;;20.80;10.95;;;8.70;99.90;;;;;;5013388;28;19924;-62
2023/12/18 10:50:34;;;;;;;22.15;11.05;;;8.70;99.90;;;;;;4997853;28;20049;-63
2023/12/18 10:53:01;;;;;;;20.13;11.13;;;8.70;99.90;;;;;;5017034;28;20038;-63
2023/12/18 10:55:27;;;;;;;23.45;9.95;;;8.80;99.90;;;;;;5028948;28;20054;-63
2023/12/18 10:57:56;;;;;;;18.88;10.13;;;8.80;99.90;;;;;;4998498;28;20035;-63
2023/12/18 11:00:23;;;;;;;21.00;10.52;;;8.80;99.90;;;;;;5014900;28;20064;-63
2023/12/18 11:02:49;;;;;;;19.60;11.10;;;8.80;99.90;;;;;;5030767;28;20057;-63
2023/12/18 11:05:15;;;;;;;22.30;10.32;;;8.80;99.90;;;;;;5016965;28;20079;-63
2023/12/18 11:07:42;;;;;;;16.60;9.27;;;8.90;99.90;;;;;;5050358;28;20041;-63
2023/12/18 11:10:08;;;;;;;19.70;10.18;;;8.90;99.90;;;;;;5026073;28;20045;-63
2023/12/18 11:12:37;;;;;;;19.92;9.98;;;8.90;99.90;;;;;;5019772;28;20112;-63
2023/12/18 11:15:21;;;;;;;20.55;9.88;;;8.90;99.90;;;;;;5035910;28;20059;-63
2023/12/18 11:18:13;;;;;;;18.80;9.93;;;8.90;99.90;;;;;;5016871;28;20045;-63
2023/12/18 11:20:42;;;;;;;19.33;9.57;;;8.90;99.90;;;;;;5024191;28;20100;-64
2023/12/18 11:23:10;;;;;;;25.33;11.90;;;8.80;99.90;;;;;;5028975;28;20056;-63
2023/12/18 11:25:37;;;;;;;25.65;11.10;;;8.80;99.90;;;;;;5029303;28;20438;-63
2023/12/18 11:28:05;;;;;;;20.50;11.68;;;8.80;99.90;;;;;;5024663;28;20474;-63
2023/12/18 11:30:32;;;;;;;21.92;11.23;;;8.80;99.90;;;;;;5015895;28;20037;-63
2023/12/18 11:33:05;;;;;;;25.77;11.20;;;8.80;99.90;;;;;;5023824;28;20111;-63
2023/12/18 11:35:33;;;;;;;21.98;10.93;;;8.80;99.90;;;;;;5026821;28;20041;-63
2023/12/18 11:38:06;;;;;;;23.67;11.25;;;8.80;99.90;;;;;;5016557;28;20091;-63
2023/12/18 11:40:32;;;;;;;23.83;12.68;;;8.80;99.90;;;;;;5017155;28;20045;-63
2023/12/18 11:42:58;;;;;;;23.02;13.00;;;8.80;99.90;;;;;;5046259;28;20041;-63
2023/12/18 11:45:25;;;;;;;22.08;10.35;;;8.80;99.90;;;;;;5029687;28;20144;-62
2023/12/18 11:47:52;;;;;;;24.17;12.10;;;8.80;99.90;;;;;;5035930;28;20052;-63
2023/12/18 11:50:24;;;;;;;26.23;10.60;;;8.70;99.90;;;;;;5036634;28;20049;-63
2023/12/18 11:52:50;;;;;;;19.52;10.25;;;8.70;99.90;;;;;;5034299;28;20520;-63
2023/12/18 11:55:47;;;;;;;24.50;12.15;;;8.70;99.90;;;;;;5017538;28;20049;-63
2023/12/18 11:58:14;;;;;;;18.65;10.68;;;8.70;99.90;;;;;;5001293;28;20038;-63
2023/12/18 12:00:40;;;;;;;18.65;10.93;;;8.70;99.90;;;;;;5013579;28;20045;-63
2023/12/18 12:03:06;;;;;;;23.08;11.70;;;8.70;99.90;;;;;;4997363;28;20042;-63
2023/12/18 12:05:33;;;;;;;20.63;11.07;;;8.70;99.90;;;;;;5012199;28;20049;-63
2023/12/18 12:08:00;;;;;;;20.45;11.05;;;8.70;99.90;;;;;;5005707;28;20045;-63
2023/12/18 12:10:26;;;;;;;23.10;12.40;;;8.70;99.90;;;;;;4999964;28;20423;-63
2023/12/18 12:12:56;;;;;;;21.15;11.23;;;8.70;99.90;;;;;;5009404;28;20037;-63
2023/12/18 12:15:24;;;;;;;22.55;11.73;;;8.70;99.90;;;;;;4996263;28;20049;-63
2023/12/18 12:17:50;;;;;;;21.13;11.25;;;8.70;99.90;;;;;;4997239;28;20084;-63
2023/12/18 12:20:17;;;;;;;24.48;11.88;;;8.70;99.90;;;;;;5033168;28;20037;-63
2023/12/18 12:22:44;;;;;;;19.40;9.77;;;8.70;99.90;;;;;;4999584;28;20092;-63
2023/12/18 12:25:10;;;;;;;22.65;12.27;;;8.70;99.90;;;;;;5015483;28;20042;-63
2023/12/18 12:27:35;;;;;;;20.67;11.43;;;8.70;99.90;;;;;;4999393;28;20045;-63
2023/12/18 12:30:02;;;;;;;25.33;12.18;;;8.70;99.90;;;;;;5016153;28;20498;-63
2023/12/18 12:32:28;;;;;;;22.45;11.43;;;8.70;99.90;;;;;;5001825;28;20056;-63
2023/12/18 12:34:55;;;;;;;24.00;12.20;;;8.70;99.90;;;;;;4995454;28;20407;-62
2023/12/18 12:37:22;;;;;;;20.95;11.18;;;8.70;99.90;;;;;;4996399;28;20068;-62
2023/12/18 12:40:05;;;;;;;22.60;12.48;;;8.70;99.90;;;;;;4996248;28;20109;-62